createdAt,value
2018-10-07T00:01:19.316Z,9.75
2018-10-07T00:03:47.763Z,9.65
2018-10-07T00:06:16.247Z,9.48
2018-10-07T00:08:44.690Z,9.44
2018-10-07T00:11:13.198Z,9.36
2018-10-07T00:13:41.694Z,9.42
2018-10-07T00:16:10.174Z,9.46
2018-10-07T00:18:38.688Z,9.46
2018-10-07T00:21:07.124Z,9.55
2018-10-07T00:23:35.846Z,9.53
2018-10-07T00:26:04.386Z,9.37
2018-10-07T00:28:32.997Z,9.29
2018-10-07T00:31:01.461Z,9.12
2018-10-07T00:33:29.912Z,9.06
2018-10-07T00:35:58.407Z,9.05
2018-10-07T00:38:26.896Z,9.09
2018-10-07T00:40:55.388Z,9.14
2018-10-07T00:43:23.888Z,9.14
2018-10-07T00:45:52.434Z,9.21
2018-10-07T00:48:20.933Z,9.12
2018-10-07T00:50:49.419Z,9.04
2018-10-07T00:53:17.861Z,9.00
2018-10-07T00:55:46.416Z,8.99
2018-10-07T00:58:14.908Z,8.89
2018-10-07T01:00:43.335Z,8.92
2018-10-07T01:03:11.856Z,8.91
2018-10-07T01:05:40.294Z,8.83
2018-10-07T01:08:08.753Z,8.80
2018-10-07T01:10:37.216Z,8.85
2018-10-07T01:13:05.688Z,8.80
2018-10-07T01:15:34.400Z,8.84
2018-10-07T01:18:02.932Z,8.65
2018-10-07T01:20:31.397Z,8.60
2018-10-07T01:22:59.991Z,8.69
2018-10-07T01:25:28.486Z,8.68
2018-10-07T01:27:56.917Z,8.58
2018-10-07T01:30:25.402Z,8.60
2018-10-07T01:32:55.455Z,8.68
2018-10-07T01:35:24.515Z,8.74
2018-10-07T01:37:53.035Z,8.79
2018-10-07T01:40:21.493Z,8.83
2018-10-07T01:42:49.941Z,8.87
2018-10-07T01:45:18.372Z,8.86
2018-10-07T01:47:46.881Z,8.71
2018-10-07T01:50:15.373Z,8.68
2018-10-07T01:52:43.827Z,8.63
2018-10-07T01:55:12.323Z,8.47
2018-10-07T01:57:40.760Z,8.56
2018-10-07T02:00:09.449Z,8.60
2018-10-07T02:02:37.935Z,8.42
2018-10-07T02:05:06.394Z,8.65
2018-10-07T02:07:34.989Z,8.51
2018-10-07T02:10:03.440Z,8.45
2018-10-07T02:12:31.942Z,8.26
2018-10-07T02:15:00.395Z,8.28
2018-10-07T02:17:28.860Z,8.29
2018-10-07T02:19:58.311Z,8.41
2018-10-07T02:22:26.715Z,8.44
2018-10-07T02:24:55.161Z,8.38
2018-10-07T02:27:23.744Z,8.39
2018-10-07T02:29:52.866Z,8.40
2018-10-07T02:32:21.321Z,8.37
2018-10-07T02:34:49.781Z,8.36
2018-10-07T02:37:18.213Z,8.35
2018-10-07T02:39:46.683Z,8.36
2018-10-07T02:42:15.157Z,8.45
2018-10-07T02:44:43.652Z,8.46
2018-10-07T02:47:12.155Z,5.67
2018-10-07T02:49:41.520Z,8.36
2018-10-07T02:52:10.031Z,8.18
2018-10-07T02:54:39.490Z,8.14
2018-10-07T02:57:07.982Z,8.14
2018-10-07T02:59:36.522Z,8.15
2018-10-07T03:02:04.944Z,8.16
2018-10-07T03:04:33.963Z,8.10
2018-10-07T03:07:02.546Z,8.26
2018-10-07T03:09:31.007Z,7.76
2018-10-07T03:11:59.461Z,7.84
2018-10-07T03:14:27.911Z,7.76
2018-10-07T03:16:57.186Z,8.04
2018-10-07T03:19:25.658Z,7.86
2018-10-07T03:21:54.244Z,7.98
2018-10-07T03:24:22.785Z,7.95
2018-10-07T03:26:51.304Z,7.88
2018-10-07T03:29:20.691Z,8.08
2018-10-07T03:31:49.150Z,8.22
2018-10-07T03:34:18.354Z,8.45
2018-10-07T03:36:46.919Z,8.28
2018-10-07T03:39:16.395Z,8.34
2018-10-07T03:41:44.956Z,8.20
2018-10-07T03:44:13.408Z,8.40
2018-10-07T03:46:41.911Z,8.34
2018-10-07T03:49:10.980Z,8.42
2018-10-07T03:51:39.452Z,8.57
2018-10-07T03:54:08.568Z,8.62
2018-10-07T03:56:37.776Z,8.43
2018-10-07T03:59:06.339Z,8.40
2018-10-07T04:01:34.880Z,8.55
2018-10-07T04:04:03.331Z,8.59
2018-10-07T04:06:31.789Z,8.35
2018-10-07T04:09:00.431Z,8.35
2018-10-07T04:11:28.909Z,8.28
2018-10-07T04:13:57.402Z,8.35
2018-10-07T04:16:26.047Z,8.30
2018-10-07T04:18:54.568Z,8.38
2018-10-07T04:21:23.048Z,8.30
2018-10-07T04:23:51.710Z,8.45
2018-10-07T04:26:20.174Z,8.30
2018-10-07T04:28:48.680Z,8.24
2018-10-07T04:31:17.265Z,8.29
2018-10-07T04:33:45.713Z,8.45
2018-10-07T04:36:15.001Z,8.57
2018-10-07T04:38:43.423Z,8.66
2018-10-07T04:41:11.908Z,8.69
2018-10-07T04:43:40.358Z,8.75
2018-10-07T04:46:08.874Z,8.76
2018-10-07T04:48:37.424Z,8.72
2018-10-07T04:51:06.101Z,8.63
2018-10-07T04:53:35.411Z,8.70
2018-10-07T04:56:04.038Z,8.70
2018-10-07T04:58:32.543Z,8.64
2018-10-07T05:01:02.745Z,8.60
2018-10-07T05:03:31.194Z,8.65
2018-10-07T05:06:00.122Z,8.71
2018-10-07T05:08:28.708Z,8.75
2018-10-07T05:11:02.837Z,8.79
2018-10-07T05:13:36.688Z,8.81
2018-10-07T05:16:05.191Z,8.62
2018-10-07T05:18:33.752Z,8.71
2018-10-07T05:21:02.555Z,8.40
2018-10-07T05:23:30.946Z,8.21
2018-10-07T05:25:59.412Z,8.48
2018-10-07T05:28:27.915Z,8.36
2018-10-07T05:30:56.421Z,8.27
2018-10-07T05:33:25.064Z,8.33
2018-10-07T05:35:54.004Z,7.93
2018-10-07T05:38:30.146Z,7.79
2018-10-07T05:40:58.925Z,7.85
2018-10-07T05:43:27.432Z,7.89
2018-10-07T05:45:56.481Z,8.23
2018-10-07T05:48:24.998Z,8.44
2018-10-07T05:50:54.120Z,8.43
2018-10-07T05:53:27.753Z,8.51
2018-10-07T05:55:56.192Z,8.52
2018-10-07T05:58:25.042Z,8.29
2018-10-07T06:00:55.431Z,8.51
2018-10-07T06:03:38.894Z,8.54
2018-10-07T06:06:08.137Z,8.81
2018-10-07T06:08:36.700Z,8.58
2018-10-07T06:11:05.507Z,8.80
2018-10-07T06:13:34.081Z,8.67
2018-10-07T06:16:02.548Z,8.76
2018-10-07T06:18:30.962Z,8.94
2018-10-07T06:21:00.202Z,8.67
2018-10-07T06:23:28.650Z,8.64
2018-10-07T06:25:57.073Z,8.63
2018-10-07T06:28:25.627Z,9.02
2018-10-07T06:30:54.901Z,8.75
2018-10-07T06:33:23.380Z,8.95
2018-10-07T06:35:51.912Z,8.70
2018-10-07T06:38:21.051Z,8.70
2018-10-07T06:40:49.591Z,8.54
2018-10-07T06:43:18.075Z,8.76
2018-10-07T06:45:46.575Z,8.86
2018-10-07T06:48:15.708Z,8.78
2018-10-07T06:50:44.199Z,9.23
2018-10-07T06:53:12.727Z,9.23
2018-10-07T06:55:41.184Z,9.53
2018-10-07T06:58:09.622Z,9.70
2018-10-07T07:00:38.050Z,9.74
2018-10-07T07:03:06.616Z,9.81
2018-10-07T07:05:35.178Z,10.02
2018-10-07T07:08:04.250Z,10.16
2018-10-07T07:10:32.807Z,10.13
2018-10-07T07:13:01.351Z,10.27
2018-10-07T07:15:30.004Z,10.29
2018-10-07T07:17:58.580Z,10.48
2018-10-07T07:20:27.079Z,10.58
2018-10-07T07:22:56.401Z,10.59
2018-10-07T07:25:24.876Z,10.51
2018-10-07T07:27:54.715Z,10.55
2018-10-07T07:30:23.280Z,10.59
2018-10-07T07:32:51.832Z,10.67
2018-10-07T07:35:20.348Z,10.79
2018-10-07T07:37:48.971Z,11.06
2018-10-07T07:40:17.876Z,11.10
2018-10-07T07:42:46.373Z,11.46
2018-10-07T07:45:15.599Z,12.01
2018-10-07T07:47:44.044Z,12.27
2018-10-07T07:50:12.585Z,12.28
2018-10-07T07:52:41.079Z,12.81
2018-10-07T07:55:09.577Z,13.32
2018-10-07T07:57:38.128Z,13.78
2018-10-07T08:00:06.736Z,13.75
2018-10-07T08:02:35.219Z,14.23
2018-10-07T08:05:03.695Z,14.78
2018-10-07T08:07:32.152Z,14.71
2018-10-07T08:10:01.251Z,14.91
2018-10-07T08:12:29.727Z,15.09
2018-10-07T08:14:58.286Z,15.40
2018-10-07T08:17:27.965Z,15.71
2018-10-07T08:19:56.858Z,16.32
2018-10-07T08:22:25.935Z,16.28
2018-10-07T08:24:54.428Z,16.06
2018-10-07T08:27:23.987Z,16.47
2018-10-07T08:29:52.581Z,16.61
2018-10-07T08:32:21.874Z,16.68
2018-10-07T08:34:50.460Z,16.60
2018-10-07T08:37:18.903Z,16.71
2018-10-07T08:39:47.447Z,16.86
2018-10-07T08:42:15.954Z,16.83
2018-10-07T08:44:44.470Z,17.00
2018-10-07T08:47:13.664Z,17.22
2018-10-07T08:49:42.262Z,16.63
2018-10-07T08:52:10.771Z,16.92
2018-10-07T08:54:39.233Z,17.08
2018-10-07T08:57:08.779Z,17.25
2018-10-07T08:59:37.848Z,17.19
2018-10-07T09:02:06.974Z,17.31
2018-10-07T09:04:35.380Z,17.88
2018-10-07T09:07:04.079Z,18.19
2018-10-07T09:09:32.667Z,18.73
2018-10-07T09:12:01.322Z,18.89
2018-10-07T09:14:29.863Z,18.99
2018-10-07T09:16:58.409Z,19.35
2018-10-07T09:19:26.909Z,19.14
2018-10-07T09:21:55.988Z,19.14
2018-10-07T09:24:24.962Z,19.11
2018-10-07T09:26:53.679Z,18.41
2018-10-07T09:29:24.201Z,18.40
2018-10-07T09:31:53.106Z,19.01
2018-10-07T09:34:22.868Z,19.53
2018-10-07T09:36:52.016Z,20.04
2018-10-07T09:39:21.053Z,18.56
2018-10-07T09:41:50.538Z,20.08
2018-10-07T09:44:20.288Z,20.36
2018-10-07T09:46:48.909Z,20.41
2018-10-07T09:49:17.613Z,20.97
2018-10-07T09:51:46.499Z,21.25
2018-10-07T09:54:15.283Z,21.17
2018-10-07T09:56:44.155Z,20.69
2018-10-07T09:59:13.417Z,20.58
2018-10-07T10:01:41.975Z,20.62
2018-10-07T10:04:10.558Z,21.04
2018-10-07T10:06:39.143Z,21.86
2018-10-07T10:09:08.948Z,21.56
2018-10-07T10:11:37.550Z,21.98
2018-10-07T10:14:05.995Z,21.61
2018-10-07T10:16:46.520Z,21.60
2018-10-07T10:19:25.985Z,20.99
2018-10-07T10:22:09.402Z,21.37
2018-10-07T10:24:48.868Z,21.54
2018-10-07T10:27:31.826Z,21.05
2018-10-07T10:30:08.362Z,19.96
2018-10-07T10:32:46.810Z,21.29
2018-10-07T10:35:22.078Z,20.88
2018-10-07T10:38:03.311Z,20.50
2018-10-07T10:40:37.419Z,20.65
2018-10-07T10:43:16.825Z,22.01
2018-10-07T10:47:54.428Z,20.03
2018-10-07T10:51:04.435Z,21.52
2018-10-07T10:53:46.972Z,21.62
2018-10-07T10:56:25.295Z,20.17
2018-10-07T11:02:11.644Z,20.69
2018-10-07T11:05:17.991Z,20.84
2018-10-07T11:07:56.370Z,20.89
2018-10-07T11:11:02.247Z,21.49
2018-10-07T11:13:34.255Z,20.90
2018-10-07T11:16:10.597Z,21.35
2018-10-07T11:19:26.523Z,22.02
2018-10-07T11:22:09.509Z,22.28
2018-10-07T11:24:44.996Z,21.02
2018-10-07T11:28:23.576Z,21.21
2018-10-07T11:31:03.676Z,21.14
2018-10-07T11:34:10.180Z,21.63
2018-10-07T11:37:14.287Z,21.15
2018-10-07T11:41:04.614Z,20.80
2018-10-07T11:43:51.586Z,19.66
2018-10-07T11:48:36.908Z,20.59
2018-10-07T11:51:14.964Z,19.69
2018-10-07T11:53:47.380Z,20.29
2018-10-07T11:56:16.882Z,19.37
2018-10-07T11:58:45.346Z,19.41
2018-10-07T12:01:13.968Z,19.03
2018-10-07T12:03:42.430Z,19.47
2018-10-07T12:06:10.943Z,19.60
2018-10-07T12:08:39.530Z,19.24
2018-10-07T12:11:08.048Z,19.07
2018-10-07T12:13:36.685Z,19.14
2018-10-07T12:16:05.644Z,19.29
2018-10-07T12:18:34.511Z,19.47
2018-10-07T12:21:03.075Z,19.23
2018-10-07T12:23:31.574Z,19.71
2018-10-07T12:26:00.124Z,20.24
2018-10-07T12:28:28.598Z,20.43
2018-10-07T12:30:57.267Z,19.49
2018-10-07T12:33:25.974Z,19.65
2018-10-07T12:35:55.269Z,19.86
2018-10-07T12:38:24.041Z,19.55
2018-10-07T12:40:52.723Z,20.12
2018-10-07T12:43:21.255Z,20.29
2018-10-07T12:45:49.786Z,20.05
2018-10-07T12:48:18.315Z,19.80
2018-10-07T12:50:46.807Z,19.79
2018-10-07T12:53:15.540Z,20.19
2018-10-07T12:55:44.027Z,19.95
2018-10-07T12:58:13.888Z,20.01
2018-10-07T13:00:42.667Z,20.33
2018-10-07T13:03:11.415Z,20.41
2018-10-07T13:05:40.131Z,19.94
2018-10-07T13:08:08.968Z,19.95
2018-10-07T13:10:38.763Z,19.70
2018-10-07T13:13:07.333Z,19.58
2018-10-07T13:15:35.872Z,19.56
2018-10-07T13:18:04.411Z,19.53
2018-10-07T13:20:33.152Z,19.41
2018-10-07T13:23:01.759Z,20.00
2018-10-07T13:25:30.438Z,19.68
2018-10-07T13:27:59.680Z,19.61
2018-10-07T13:30:28.396Z,19.68
2018-10-07T13:32:57.036Z,19.91
2018-10-07T13:35:25.596Z,19.72
2018-10-07T13:37:54.625Z,19.69
2018-10-07T13:40:24.073Z,19.35
2018-10-07T13:42:52.695Z,19.37
2018-10-07T13:45:21.500Z,19.28
2018-10-07T13:47:50.083Z,19.09
2018-10-07T13:50:18.849Z,18.66
2018-10-07T13:52:47.292Z,18.66
2018-10-07T13:55:15.933Z,18.42
2018-10-07T13:57:44.518Z,18.38
2018-10-07T14:00:13.128Z,18.29
2018-10-07T14:02:41.624Z,18.21
2018-10-07T14:05:10.293Z,18.18
2018-10-07T14:07:38.757Z,18.10
2018-10-07T14:10:07.376Z,18.09
2018-10-07T14:12:35.900Z,18.02
2018-10-07T14:15:04.512Z,18.00
2018-10-07T14:17:34.204Z,18.05
2018-10-07T14:20:02.677Z,18.16
2018-10-07T14:22:31.171Z,18.07
2018-10-07T14:25:00.005Z,18.12
2018-10-07T14:27:28.580Z,18.27
2018-10-07T14:29:57.071Z,18.19
2018-10-07T14:32:25.575Z,18.45
2018-10-07T14:34:54.155Z,18.20
2018-10-07T14:37:22.708Z,18.27
2018-10-07T14:39:51.191Z,18.18
2018-10-07T14:42:19.682Z,18.13
2018-10-07T14:44:48.217Z,17.97
2018-10-07T14:47:16.919Z,17.99
2018-10-07T14:49:46.274Z,17.98
2018-10-07T14:52:14.993Z,18.07
2018-10-07T14:55:14.732Z,17.80
2018-10-07T14:57:43.353Z,17.85
2018-10-07T15:00:11.832Z,17.55
2018-10-07T15:02:40.398Z,17.42
2018-10-07T15:05:09.023Z,17.43
2018-10-07T15:07:37.559Z,17.49
2018-10-07T15:10:06.597Z,17.51
2018-10-07T15:12:35.043Z,17.43
2018-10-07T15:15:03.538Z,17.27
2018-10-07T15:17:32.077Z,17.28
2018-10-07T15:20:01.040Z,17.48
2018-10-07T15:22:30.316Z,17.64
2018-10-07T15:24:58.777Z,17.40
2018-10-07T15:27:27.355Z,17.42
2018-10-07T15:29:57.242Z,17.38
2018-10-07T15:32:25.718Z,17.44
2018-10-07T15:34:54.240Z,17.38
2018-10-07T15:37:23.113Z,17.45
2018-10-07T15:39:51.582Z,17.27
2018-10-07T15:42:20.471Z,17.13
2018-10-07T15:44:48.996Z,16.90
2018-10-07T15:47:17.500Z,16.93
2018-10-07T15:49:46.103Z,16.86
2018-10-07T15:52:14.908Z,16.77
2018-10-07T15:54:43.356Z,16.70
2018-10-07T15:57:11.880Z,16.70
2018-10-07T15:59:40.445Z,16.75
2018-10-07T16:02:08.945Z,16.53
2018-10-07T16:04:37.436Z,16.62
2018-10-07T16:07:05.940Z,16.65
2018-10-07T16:09:34.619Z,16.68
2018-10-07T16:12:04.019Z,16.66
2018-10-07T16:14:32.909Z,16.52
2018-10-07T16:17:01.858Z,16.28
2018-10-07T16:19:30.927Z,16.18
2018-10-07T16:21:59.583Z,16.18
2018-10-07T16:24:28.182Z,16.09
2018-10-07T16:26:56.617Z,16.03
2018-10-07T16:29:25.190Z,15.91
2018-10-07T16:31:54.923Z,15.94
2018-10-07T16:34:23.656Z,15.91
2018-10-07T16:36:52.117Z,15.86
2018-10-07T16:39:20.655Z,15.86
2018-10-07T16:41:49.433Z,15.56
2018-10-07T16:44:18.445Z,15.54
2018-10-07T16:46:47.627Z,15.55
2018-10-07T16:49:16.200Z,15.40
2018-10-07T16:51:44.702Z,15.38
2018-10-07T16:54:15.018Z,15.30
2018-10-07T16:56:43.621Z,15.26
2018-10-07T16:59:12.237Z,15.14
2018-10-07T17:01:40.875Z,15.21
2018-10-07T17:04:09.415Z,15.13
2018-10-07T17:06:37.840Z,15.00
2018-10-07T17:09:08.354Z,15.10
2018-10-07T17:11:36.809Z,15.05
2018-10-07T17:14:05.344Z,15.09
2018-10-07T17:16:34.683Z,15.06
2018-10-07T17:19:03.279Z,14.94
2018-10-07T17:21:31.770Z,14.74
2018-10-07T17:24:00.653Z,14.59
2018-10-07T17:26:29.192Z,14.50
2018-10-07T17:28:57.824Z,14.61
2018-10-07T17:31:28.385Z,14.36
2018-10-07T17:33:58.317Z,14.29
2018-10-07T17:36:26.873Z,14.18
2018-10-07T17:38:55.419Z,14.21
2018-10-07T17:41:23.906Z,14.16
2018-10-07T17:43:52.949Z,13.99
2018-10-07T17:46:21.493Z,13.98
2018-10-07T17:48:50.007Z,13.99
2018-10-07T17:51:18.452Z,13.87
2018-10-07T17:53:47.691Z,13.92
2018-10-07T17:56:17.189Z,13.87
2018-10-07T17:58:45.844Z,13.84
2018-10-07T18:01:14.608Z,13.69
2018-10-07T18:03:43.716Z,13.71
2018-10-07T18:06:12.280Z,13.63
2018-10-07T18:08:40.862Z,13.51
2018-10-07T18:11:09.429Z,13.53
2018-10-07T18:13:38.246Z,13.46
2018-10-07T18:16:06.931Z,13.56
2018-10-07T18:18:35.569Z,13.45
2018-10-07T18:21:04.186Z,13.49
2018-10-07T18:23:32.897Z,13.50
2018-10-07T18:26:01.410Z,13.52
2018-10-07T18:28:29.958Z,13.49
2018-10-07T18:30:58.490Z,13.43
2018-10-07T18:33:26.952Z,13.36
2018-10-07T18:35:55.417Z,13.40
2018-10-07T18:38:24.553Z,13.36
2018-10-07T18:40:53.521Z,13.27
2018-10-07T18:43:22.917Z,13.29
2018-10-07T18:45:51.824Z,13.21
2018-10-07T18:48:20.454Z,13.19
2018-10-07T18:50:48.901Z,13.26
2018-10-07T18:53:17.372Z,13.10
2018-10-07T18:55:45.804Z,13.07
2018-10-07T18:58:15.191Z,13.14
2018-10-07T19:00:43.722Z,13.02
2018-10-07T19:03:12.193Z,13.02
2018-10-07T19:05:40.643Z,13.10
2018-10-07T19:08:09.032Z,13.03
2018-10-07T19:10:37.471Z,12.91
2018-10-07T19:13:06.030Z,12.93
2018-10-07T19:15:34.737Z,12.86
2018-10-07T19:18:03.535Z,12.81
2018-10-07T19:20:31.978Z,12.72
2018-10-07T19:23:01.786Z,12.70
2018-10-07T19:25:30.496Z,12.57
2018-10-07T19:27:59.427Z,12.55
2018-10-07T19:30:27.870Z,12.52
2018-10-07T19:32:57.284Z,12.38
2018-10-07T19:35:25.965Z,12.38
2018-10-07T19:37:54.662Z,12.24
2018-10-07T19:40:23.070Z,12.19
2018-10-07T19:42:51.536Z,12.21
2018-10-07T19:45:20.056Z,12.27
2018-10-07T19:47:48.580Z,12.26
2018-10-07T19:50:17.033Z,12.18
2018-10-07T19:52:46.041Z,12.10
2018-10-07T19:55:14.475Z,12.07
2018-10-07T19:57:42.891Z,11.96
2018-10-07T20:00:11.956Z,11.93
2018-10-07T20:02:40.474Z,11.95
2018-10-07T20:05:09.432Z,11.77
2018-10-07T20:07:37.948Z,11.65
2018-10-07T20:10:06.697Z,11.48
2018-10-07T20:12:35.420Z,11.29
2018-10-07T20:15:03.925Z,11.28
2018-10-07T20:17:32.441Z,11.04
2018-10-07T20:20:01.580Z,11.24
2018-10-07T20:22:30.056Z,11.16
2018-10-07T20:24:58.716Z,11.08
2018-10-07T20:27:27.289Z,10.94
2018-10-07T20:29:56.425Z,10.96
2018-10-07T20:32:25.181Z,10.97
2018-10-07T20:34:53.891Z,11.04
2018-10-07T20:37:22.604Z,11.04
2018-10-07T20:39:51.120Z,11.05
2018-10-07T20:42:19.573Z,10.98
2018-10-07T20:44:47.980Z,10.94
2018-10-07T20:47:16.947Z,10.96
2018-10-07T20:49:46.218Z,10.83
2018-10-07T20:52:15.078Z,10.58
2018-10-07T20:54:43.624Z,10.80
2018-10-07T20:57:12.147Z,10.84
2018-10-07T20:59:40.635Z,10.60
2018-10-07T21:02:09.148Z,10.41
2018-10-07T21:04:37.615Z,10.40
2018-10-07T21:07:06.110Z,10.36
2018-10-07T21:09:35.469Z,10.37
2018-10-07T21:12:03.967Z,10.38
2018-10-07T21:14:32.458Z,10.39
2018-10-07T21:17:00.932Z,10.53
2018-10-07T21:19:29.397Z,10.58
2018-10-07T21:21:57.881Z,10.56
2018-10-07T21:24:26.361Z,10.56
2018-10-07T21:26:54.850Z,10.58
2018-10-07T21:29:23.349Z,10.54
2018-10-07T21:31:51.853Z,10.45
2018-10-07T21:34:20.341Z,10.43
2018-10-07T21:36:48.879Z,10.42
2018-10-07T21:39:17.306Z,10.33
2018-10-07T21:41:46.498Z,9.95
2018-10-07T21:44:15.357Z,10.07
2018-10-07T21:46:43.865Z,10.14
2018-10-07T21:49:12.312Z,10.16
2018-10-07T21:51:40.727Z,9.97
2018-10-07T21:54:09.176Z,10.09
2018-10-07T21:56:37.604Z,10.18
2018-10-07T21:59:06.683Z,10.18
2018-10-07T22:01:35.160Z,10.09
2018-10-07T22:04:03.604Z,9.91
2018-10-07T22:06:32.046Z,9.73
2018-10-07T22:09:00.545Z,9.77
2018-10-07T22:11:29.985Z,9.89
2018-10-07T22:13:58.463Z,9.99
2018-10-07T22:16:26.899Z,10.01
2018-10-07T22:18:55.917Z,9.99
2018-10-07T22:21:24.569Z,9.98
2018-10-07T22:23:53.012Z,9.88
2018-10-07T22:26:21.527Z,9.94
2018-10-07T22:28:49.971Z,9.91
2018-10-07T22:31:18.439Z,9.56
2018-10-07T22:33:46.904Z,9.66
2018-10-07T22:36:15.455Z,9.72
2018-10-07T22:38:43.915Z,9.74
2018-10-07T22:41:12.981Z,9.63
2018-10-07T22:43:41.513Z,9.59
2018-10-07T22:46:09.964Z,9.54
2018-10-07T22:48:38.441Z,9.52
2018-10-07T22:51:06.920Z,9.69
2018-10-07T22:53:35.407Z,9.65
2018-10-07T22:56:03.824Z,9.57
2018-10-07T22:58:32.305Z,9.36
2018-10-07T23:01:00.832Z,9.33
2018-10-07T23:03:29.712Z,9.35
2018-10-07T23:05:58.309Z,9.46
2018-10-07T23:08:26.763Z,9.53
2018-10-07T23:10:55.420Z,9.51
2018-10-07T23:13:24.635Z,9.46
2018-10-07T23:15:53.144Z,9.51
2018-10-07T23:18:22.291Z,9.53
2018-10-07T23:20:50.768Z,9.59
2018-10-07T23:23:19.289Z,9.52
2018-10-07T23:25:48.758Z,9.47
2018-10-07T23:28:17.270Z,9.38
2018-10-07T23:30:45.755Z,9.34
2018-10-07T23:33:14.236Z,9.32
2018-10-07T23:35:42.759Z,9.35
2018-10-07T23:38:11.207Z,9.26
2018-10-07T23:40:40.024Z,9.25
2018-10-07T23:43:08.448Z,9.20
2018-10-07T23:45:36.962Z,9.15
2018-10-07T23:48:05.431Z,9.14
2018-10-07T23:50:34.507Z,9.10
2018-10-07T23:53:02.948Z,8.97
2018-10-07T23:55:31.430Z,8.89
2018-10-07T23:58:00.158Z,8.97
